This is the latest recevied weather packets stored in our database for station/object KD8JAM. If no packets are shown the sender has not sent any weather packets the latest 10 day(s).
| Time | Temp. | Humidity | Pressure | Rain* | Wind** | Luminosity | Snow |
|---|---|---|---|---|---|---|---|
| 1777850482 | 13.33° C | 39% | 1002.5 hPa | 0 mm | - | 75 W/m² | - |
| 1777850180 | 13.33° C | 40% | 1002.4 hPa | 0 mm | - | 75 W/m² | - |
| 1777849877 | 13.33° C | 39% | 1002.6 hPa | 0 mm | - | 134 W/m² | - |
| 1777849574 | 13.89° C | 40% | 1002.4 hPa | 0 mm | - | 184 W/m² | - |
| 1777849271 | 13.33° C | 40% | 1002.5 hPa | 0 mm | - | 242 W/m² | - |
| 1777848969 | 13.33° C | 40% | 1002.4 hPa | 0 mm | - | 252 W/m² | - |
| 1777848668 | 12.78° C | 43% | 1002.6 hPa | 0 mm | - | 121 W/m² | - |
| 1777848366 | 12.78° C | 43% | 1002.4 hPa | 0 mm | - | 150 W/m² | - |
| 1777848063 | 12.78° C | 45% | 1002.5 hPa | 0 mm | - | 173 W/m² | - |
| 1777847761 | 12.22° C | 45% | 1002.8 hPa | 0 mm | - | 178 W/m² | - |
| 1777847457 | 12.22° C | 46% | 1002.5 hPa | 0 mm | - | 178 W/m² | - |
| 1777847155 | 12.22° C | 46% | 1002.5 hPa | 0 mm | - | 167 W/m² | - |
| 1777846852 | 12.22° C | 46% | 1002.6 hPa | 0 mm | - | 169 W/m² | - |
| 1777846550 | 12.78° C | 46% | 1002.4 hPa | 0 mm | - | 190 W/m² | - |
| 1777846248 | 12.78° C | 45% | 1002.4 hPa | 0 mm | - | 210 W/m² | - |
| 1777845944 | 12.78° C | 46% | 1002.4 hPa | 0 mm | - | 266 W/m² | - |
| 1777845641 | 12.78° C | 46% | 1002.2 hPa | 0 mm | - | 290 W/m² | - |
| 1777845338 | 12.78° C | 46% | 1002.4 hPa | 0 mm | - | 252 W/m² | - |
| 1777845035 | 12.78° C | 47% | 1002.5 hPa | 0 mm | - | 268 W/m² | - |
| 1777844733 | 12.78° C | 47% | 1002.3 hPa | 0 mm | - | 273 W/m² | - |
| 1777844429 | 12.78° C | 50% | 1002.2 hPa | 0 mm | - | 459 W/m² | - |
| 1777844128 | 12.22° C | 51% | 1002.5 hPa | 0 mm | - | 389 W/m² | - |
| 1777843824 | 12.78° C | 53% | 1002.4 hPa | 0 mm | - | 275 W/m² | - |
| 1777843521 | 12.78° C | 54% | 1002.4 hPa | 0 mm | - | 352 W/m² | - |
| 1777843219 | 12.78° C | 56% | 1002.5 hPa | 0 mm | - | 414 W/m² | - |
* Rain latest hour (hover to see other rain measurements)
** Current wind speed in m/s (hover to see current wind gust speed)